sensor_id;sensor_type;location;lat;lon;timestamp;temperature;humidity
580;DHT22;276;48.392;9.950;2024-03-22T00:02:14;11.90;99.90
580;DHT22;276;48.392;9.950;2024-03-22T00:04:40;11.90;99.90
580;DHT22;276;48.392;9.950;2024-03-22T00:07:05;12.00;99.90
580;DHT22;276;48.392;9.950;2024-03-22T00:09:33;12.00;99.90
580;DHT22;276;48.392;9.950;2024-03-22T00:11:59;12.00;99.90
580;DHT22;276;48.392;9.950;2024-03-22T00:14:24;12.00;99.90
580;DHT22;276;48.392;9.950;2024-03-22T00:16:50;12.00;99.90
580;DHT22;276;48.392;9.950;2024-03-22T00:19:18;12.00;99.90
580;DHT22;276;48.392;9.950;2024-03-22T00:21:44;12.10;99.90
580;DHT22;276;48.392;9.950;2024-03-22T00:24:11;12.10;99.90
580;DHT22;276;48.392;9.950;2024-03-22T00:26:37;12.10;99.90
580;DHT22;276;48.392;9.950;2024-03-22T00:29:03;12.00;99.90
580;DHT22;276;48.392;9.950;2024-03-22T00:31:31;12.00;99.90
580;DHT22;276;48.392;9.950;2024-03-22T00:33:59;12.00;99.90
580;DHT22;276;48.392;9.950;2024-03-22T00:36:27;12.00;99.90
580;DHT22;276;48.392;9.950;2024-03-22T00:38:53;12.00;99.90
580;DHT22;276;48.392;9.950;2024-03-22T00:41:18;11.90;99.90
580;DHT22;276;48.392;9.950;2024-03-22T00:43:44;12.00;99.90
580;DHT22;276;48.392;9.950;2024-03-22T00:46:10;11.90;99.90
580;DHT22;276;48.392;9.950;2024-03-22T00:48:35;11.80;99.90
580;DHT22;276;48.392;9.950;2024-03-22T00:51:01;11.80;99.90
580;DHT22;276;48.392;9.950;2024-03-22T00:53:27;11.80;99.90
580;DHT22;276;48.392;9.950;2024-03-22T00:55:55;11.80;99.90
580;DHT22;276;48.392;9.950;2024-03-22T00:58:21;11.70;99.90
580;DHT22;276;48.392;9.950;2024-03-22T01:00:49;11.70;99.90
580;DHT22;276;48.392;9.950;2024-03-22T01:03:15;11.70;99.90
580;DHT22;276;48.392;9.950;2024-03-22T01:05:40;11.60;99.90
580;DHT22;276;48.392;9.950;2024-03-22T01:08:09;11.60;99.90
580;DHT22;276;48.392;9.950;2024-03-22T01:10:37;11.60;99.90
580;DHT22;276;48.392;9.950;2024-03-22T01:13:05;11.50;99.90
580;DHT22;276;48.392;9.950;2024-03-22T01:15:35;11.50;99.90
580;DHT22;276;48.392;9.950;2024-03-22T01:18:01;11.50;99.90
580;DHT22;276;48.392;9.950;2024-03-22T01:20:27;11.40;99.90
580;DHT22;276;48.392;9.950;2024-03-22T01:22:54;11.40;99.90
580;DHT22;276;48.392;9.950;2024-03-22T01:25:21;11.40;99.90
580;DHT22;276;48.392;9.950;2024-03-22T01:27:51;11.30;99.90
580;DHT22;276;48.392;9.950;2024-03-22T01:30:19;11.30;99.90
580;DHT22;276;48.392;9.950;2024-03-22T01:32:45;11.20;99.90
580;DHT22;276;48.392;9.950;2024-03-22T01:35:13;11.20;99.90
580;DHT22;276;48.392;9.950;2024-03-22T01:37:41;11.20;99.90
580;DHT22;276;48.392;9.950;2024-03-22T01:40:08;11.20;99.90
580;DHT22;276;48.392;9.950;2024-03-22T01:42:36;11.20;99.90
580;DHT22;276;48.392;9.950;2024-03-22T01:45:04;11.10;99.90
580;DHT22;276;48.392;9.950;2024-03-22T01:47:30;11.10;99.90
580;DHT22;276;48.392;9.950;2024-03-22T01:49:58;11.10;99.90
580;DHT22;276;48.392;9.950;2024-03-22T01:52:26;11.00;99.90
580;DHT22;276;48.392;9.950;2024-03-22T01:54:56;11.10;99.90
580;DHT22;276;48.392;9.950;2024-03-22T01:57:24;11.00;99.90
580;DHT22;276;48.392;9.950;2024-03-22T01:59:51;10.90;99.90
580;DHT22;276;48.392;9.950;2024-03-22T02:02:19;10.90;99.90
580;DHT22;276;48.392;9.950;2024-03-22T02:04:52;10.90;99.90
580;DHT22;276;48.392;9.950;2024-03-22T02:07:20;10.90;99.90
580;DHT22;276;48.392;9.950;2024-03-22T02:09:46;10.90;99.90
580;DHT22;276;48.392;9.950;2024-03-22T02:12:14;10.80;99.90
580;DHT22;276;48.392;9.950;2024-03-22T02:14:39;10.80;99.90
580;DHT22;276;48.392;9.950;2024-03-22T02:17:12;10.70;99.90
580;DHT22;276;48.392;9.950;2024-03-22T02:19:40;10.70;99.90
580;DHT22;276;48.392;9.950;2024-03-22T02:22:08;10.70;99.90
580;DHT22;276;48.392;9.950;2024-03-22T02:24:35;10.70;99.90
580;DHT22;276;48.392;9.950;2024-03-22T02:27:01;10.60;99.90
580;DHT22;276;48.392;9.950;2024-03-22T02:29:27;10.60;99.90
580;DHT22;276;48.392;9.950;2024-03-22T02:31:55;10.60;99.90
580;DHT22;276;48.392;9.950;2024-03-22T02:34:20;10.50;99.90
580;DHT22;276;48.392;9.950;2024-03-22T02:36:46;10.50;99.90
580;DHT22;276;48.392;9.950;2024-03-22T02:39:14;10.40;99.90
580;DHT22;276;48.392;9.950;2024-03-22T02:41:40;10.40;99.90
580;DHT22;276;48.392;9.950;2024-03-22T02:44:06;10.40;99.90
580;DHT22;276;48.392;9.950;2024-03-22T02:46:34;10.40;99.90
580;DHT22;276;48.392;9.950;2024-03-22T02:49:02;10.30;99.90
580;DHT22;276;48.392;9.950;2024-03-22T02:51:29;10.20;99.90
580;DHT22;276;48.392;9.950;2024-03-22T02:53:55;10.30;99.90
580;DHT22;276;48.392;9.950;2024-03-22T02:56:21;10.20;99.90
580;DHT22;276;48.392;9.950;2024-03-22T02:58:51;10.20;99.90
580;DHT22;276;48.392;9.950;2024-03-22T03:01:17;10.20;99.90
580;DHT22;276;48.392;9.950;2024-03-22T03:03:45;10.20;99.90
580;DHT22;276;48.392;9.950;2024-03-22T03:06:13;10.20;99.90
580;DHT22;276;48.392;9.950;2024-03-22T03:08:41;10.20;99.90
580;DHT22;276;48.392;9.950;2024-03-22T03:11:07;10.10;99.90
580;DHT22;276;48.392;9.950;2024-03-22T03:13:32;10.10;99.90
580;DHT22;276;48.392;9.950;2024-03-22T03:15:58;10.10;99.90
580;DHT22;276;48.392;9.950;2024-03-22T03:18:26;10.10;99.90
580;DHT22;276;48.392;9.950;2024-03-22T03:20:54;10.10;99.90
580;DHT22;276;48.392;9.950;2024-03-22T03:23:20;10.10;99.90
580;DHT22;276;48.392;9.950;2024-03-22T03:25:48;10.00;99.90
580;DHT22;276;48.392;9.950;2024-03-22T03:28:16;10.00;99.90
580;DHT22;276;48.392;9.950;2024-03-22T03:30:47;10.00;99.90
580;DHT22;276;48.392;9.950;2024-03-22T03:33:14;10.00;99.90
580;DHT22;276;48.392;9.950;2024-03-22T03:35:48;10.00;99.90
580;DHT22;276;48.392;9.950;2024-03-22T03:38:13;9.90;99.90
580;DHT22;276;48.392;9.950;2024-03-22T03:40:39;9.90;99.90
580;DHT22;276;48.392;9.950;2024-03-22T03:43:05;9.90;99.90
580;DHT22;276;48.392;9.950;2024-03-22T03:45:30;9.90;99.90
580;DHT22;276;48.392;9.950;2024-03-22T03:47:58;9.80;99.90
580;DHT22;276;48.392;9.950;2024-03-22T03:50:26;9.80;99.90
580;DHT22;276;48.392;9.950;2024-03-22T03:52:54;9.80;99.90
580;DHT22;276;48.392;9.950;2024-03-22T03:55:21;9.80;99.90
580;DHT22;276;48.392;9.950;2024-03-22T03:57:46;9.80;99.90
580;DHT22;276;48.392;9.950;2024-03-22T04:00:14;9.80;99.90
580;DHT22;276;48.392;9.950;2024-03-22T04:02:40;9.80;99.90
580;DHT22;276;48.392;9.950;2024-03-22T04:05:06;9.80;99.90
580;DHT22;276;48.392;9.950;2024-03-22T04:07:34;9.80;99.90
580;DHT22;276;48.392;9.950;2024-03-22T04:10:02;9.80;99.90
580;DHT22;276;48.392;9.950;2024-03-22T04:12:30;9.80;99.90
580;DHT22;276;48.392;9.950;2024-03-22T04:14:55;9.80;99.90
580;DHT22;276;48.392;9.950;2024-03-22T04:17:21;9.80;99.90
580;DHT22;276;48.392;9.950;2024-03-22T04:19:49;9.70;99.90
580;DHT22;276;48.392;9.950;2024-03-22T04:22:17;9.70;99.90
580;DHT22;276;48.392;9.950;2024-03-22T04:24:45;9.70;99.90
580;DHT22;276;48.392;9.950;2024-03-22T04:27:10;9.70;99.90
580;DHT22;276;48.392;9.950;2024-03-22T04:29:38;9.60;99.90
580;DHT22;276;48.392;9.950;2024-03-22T04:32:06;9.60;99.90
580;DHT22;276;48.392;9.950;2024-03-22T04:34:34;9.60;99.90
580;DHT22;276;48.392;9.950;2024-03-22T04:37:00;9.60;99.90
580;DHT22;276;48.392;9.950;2024-03-22T04:39:28;9.50;99.90
580;DHT22;276;48.392;9.950;2024-03-22T04:41:55;9.50;99.90
580;DHT22;276;48.392;9.950;2024-03-22T04:44:23;9.50;99.90
580;DHT22;276;48.392;9.950;2024-03-22T04:46:55;9.50;99.90
580;DHT22;276;48.392;9.950;2024-03-22T04:49:23;9.60;99.90
580;DHT22;276;48.392;9.950;2024-03-22T04:51:50;9.50;99.90
580;DHT22;276;48.392;9.950;2024-03-22T04:54:16;9.50;99.90
580;DHT22;276;48.392;9.950;2024-03-22T04:56:42;9.50;99.90
580;DHT22;276;48.392;9.950;2024-03-22T04:59:12;9.50;99.90
580;DHT22;276;48.392;9.950;2024-03-22T05:01:40;9.40;99.90
580;DHT22;276;48.392;9.950;2024-03-22T05:04:08;9.40;99.90
580;DHT22;276;48.392;9.950;2024-03-22T05:06:33;9.40;99.90
580;DHT22;276;48.392;9.950;2024-03-22T05:09:01;9.40;99.90
580;DHT22;276;48.392;9.950;2024-03-22T05:11:31;9.40;99.90
580;DHT22;276;48.392;9.950;2024-03-22T05:13:59;9.40;99.90
580;DHT22;276;48.392;9.950;2024-03-22T05:16:25;9.40;99.90
580;DHT22;276;48.392;9.950;2024-03-22T05:18:52;9.40;99.90
580;DHT22;276;48.392;9.950;2024-03-22T05:21:18;9.50;99.90
580;DHT22;276;48.392;9.950;2024-03-22T05:23:46;9.40;99.90
580;DHT22;276;48.392;9.950;2024-03-22T05:26:14;9.50;99.90
580;DHT22;276;48.392;9.950;2024-03-22T05:28:40;9.50;99.90
580;DHT22;276;48.392;9.950;2024-03-22T05:31:10;9.50;99.90
580;DHT22;276;48.392;9.950;2024-03-22T05:33:35;9.60;99.90
580;DHT22;276;48.392;9.950;2024-03-22T05:36:03;9.60;99.90
580;DHT22;276;48.392;9.950;2024-03-22T05:38:29;9.60;99.90
580;DHT22;276;48.392;9.950;2024-03-22T05:40:56;9.60;99.90
580;DHT22;276;48.392;9.950;2024-03-22T05:43:22;9.60;99.90
580;DHT22;276;48.392;9.950;2024-03-22T05:45:50;9.60;99.90
580;DHT22;276;48.392;9.950;2024-03-22T05:48:18;9.70;99.90
580;DHT22;276;48.392;9.950;2024-03-22T05:50:48;9.80;99.90
580;DHT22;276;48.392;9.950;2024-03-22T05:53:16;9.80;99.90
580;DHT22;276;48.392;9.950;2024-03-22T05:55:44;9.90;99.90
580;DHT22;276;48.392;9.950;2024-03-22T05:58:14;9.90;99.90
580;DHT22;276;48.392;9.950;2024-03-22T06:00:40;10.00;99.90
580;DHT22;276;48.392;9.950;2024-03-22T06:03:05;10.00;99.90
580;DHT22;276;48.392;9.950;2024-03-22T06:05:33;10.10;99.90
580;DHT22;276;48.392;9.950;2024-03-22T06:07:58;10.10;99.90
580;DHT22;276;48.392;9.950;2024-03-22T06:10:24;10.10;99.90
580;DHT22;276;48.392;9.950;2024-03-22T06:12:50;10.20;99.90
580;DHT22;276;48.392;9.950;2024-03-22T06:15:17;10.30;99.90
580;DHT22;276;48.392;9.950;2024-03-22T06:17:46;10.30;99.90
580;DHT22;276;48.392;9.950;2024-03-22T06:20:11;10.40;99.90
580;DHT22;276;48.392;9.950;2024-03-22T06:22:40;10.50;99.90
580;DHT22;276;48.392;9.950;2024-03-22T06:25:08;10.50;99.90
580;DHT22;276;48.392;9.950;2024-03-22T06:27:36;10.70;99.90
580;DHT22;276;48.392;9.950;2024-03-22T06:30:04;10.70;99.90
580;DHT22;276;48.392;9.950;2024-03-22T06:32:32;10.80;99.90
580;DHT22;276;48.392;9.950;2024-03-22T06:34:58;10.90;99.90
580;DHT22;276;48.392;9.950;2024-03-22T06:37:23;10.90;99.90
580;DHT22;276;48.392;9.950;2024-03-22T06:39:49;11.00;99.90
580;DHT22;276;48.392;9.950;2024-03-22T06:42:16;11.10;99.90
580;DHT22;276;48.392;9.950;2024-03-22T06:44:44;11.20;99.90
580;DHT22;276;48.392;9.950;2024-03-22T06:47:12;11.30;99.90
580;DHT22;276;48.392;9.950;2024-03-22T06:49:38;11.40;99.90
580;DHT22;276;48.392;9.950;2024-03-22T06:52:06;11.50;99.90
580;DHT22;276;48.392;9.950;2024-03-22T06:54:32;11.50;99.90
580;DHT22;276;48.392;9.950;2024-03-22T06:56:57;11.60;99.90
580;DHT22;276;48.392;9.950;2024-03-22T06:59:23;11.60;99.90
580;DHT22;276;48.392;9.950;2024-03-22T07:01:51;11.70;99.90
580;DHT22;276;48.392;9.950;2024-03-22T07:04:19;11.80;99.90
580;DHT22;276;48.392;9.950;2024-03-22T07:06:46;11.80;99.90
580;DHT22;276;48.392;9.950;2024-03-22T07:09:12;11.90;99.90
580;DHT22;276;48.392;9.950;2024-03-22T07:11:43;11.90;99.90
580;DHT22;276;48.392;9.950;2024-03-22T07:14:11;12.00;99.90
580;DHT22;276;48.392;9.950;2024-03-22T07:16:37;12.00;99.90
580;DHT22;276;48.392;9.950;2024-03-22T07:19:03;12.10;99.90
580;DHT22;276;48.392;9.950;2024-03-22T07:21:33;12.20;99.90
580;DHT22;276;48.392;9.950;2024-03-22T07:23:59;12.30;99.90
580;DHT22;276;48.392;9.950;2024-03-22T07:26:29;12.40;99.90
580;DHT22;276;48.392;9.950;2024-03-22T07:28:55;12.50;99.90
580;DHT22;276;48.392;9.950;2024-03-22T07:31:20;12.60;99.90
580;DHT22;276;48.392;9.950;2024-03-22T07:33:46;12.70;99.90
580;DHT22;276;48.392;9.950;2024-03-22T07:36:11;12.80;99.90
580;DHT22;276;48.392;9.950;2024-03-22T07:38:42;12.90;99.90
580;DHT22;276;48.392;9.950;2024-03-22T07:41:07;13.00;99.90
580;DHT22;276;48.392;9.950;2024-03-22T07:43:40;13.10;99.90
580;DHT22;276;48.392;9.950;2024-03-22T07:46:08;13.10;99.90
580;DHT22;276;48.392;9.950;2024-03-22T07:48:37;13.30;99.90
580;DHT22;276;48.392;9.950;2024-03-22T07:51:02;13.50;99.90
580;DHT22;276;48.392;9.950;2024-03-22T07:53:31;13.60;99.90
580;DHT22;276;48.392;9.950;2024-03-22T07:55:58;13.70;99.90
580;DHT22;276;48.392;9.950;2024-03-22T07:58:28;13.80;99.90
580;DHT22;276;48.392;9.950;2024-03-22T08:00:58;13.90;99.90
580;DHT22;276;48.392;9.950;2024-03-22T08:03:28;14.00;99.90
580;DHT22;276;48.392;9.950;2024-03-22T08:05:56;14.10;99.90
580;DHT22;276;48.392;9.950;2024-03-22T08:08:22;14.30;99.90
580;DHT22;276;48.392;9.950;2024-03-22T08:10:47;14.40;99.90
580;DHT22;276;48.392;9.950;2024-03-22T08:13:17;14.50;99.90
580;DHT22;276;48.392;9.950;2024-03-22T08:15:43;14.60;99.90
580;DHT22;276;48.392;9.950;2024-03-22T08:18:11;14.60;99.90
580;DHT22;276;48.392;9.950;2024-03-22T08:20:38;14.50;99.90
580;DHT22;276;48.392;9.950;2024-03-22T08:23:06;14.50;99.90
580;DHT22;276;48.392;9.950;2024-03-22T08:25:38;14.50;99.90
580;DHT22;276;48.392;9.950;2024-03-22T08:28:04;14.50;99.90
580;DHT22;276;48.392;9.950;2024-03-22T08:30:32;14.50;99.90
580;DHT22;276;48.392;9.950;2024-03-22T08:33:01;14.50;99.90
580;DHT22;276;48.392;9.950;2024-03-22T08:35:31;14.50;99.90
580;DHT22;276;48.392;9.950;2024-03-22T08:37:59;14.50;99.90
580;DHT22;276;48.392;9.950;2024-03-22T08:40:28;14.60;99.90
580;DHT22;276;48.392;9.950;2024-03-22T08:42:58;14.60;99.90
580;DHT22;276;48.392;9.950;2024-03-22T08:45:24;14.60;99.90
580;DHT22;276;48.392;9.950;2024-03-22T08:47:49;14.60;99.90
580;DHT22;276;48.392;9.950;2024-03-22T08:50:15;14.70;99.90
580;DHT22;276;48.392;9.950;2024-03-22T08:52:41;14.80;99.90
580;DHT22;276;48.392;9.950;2024-03-22T08:55:11;14.90;99.90
580;DHT22;276;48.392;9.950;2024-03-22T08:57:39;14.90;99.90
580;DHT22;276;48.392;9.950;2024-03-22T09:00:07;15.00;99.90
580;DHT22;276;48.392;9.950;2024-03-22T09:02:36;15.10;99.90
580;DHT22;276;48.392;9.950;2024-03-22T09:05:05;15.20;99.90
580;DHT22;276;48.392;9.950;2024-03-22T09:07:33;15.20;99.90
580;DHT22;276;48.392;9.950;2024-03-22T09:09:58;15.30;99.90
580;DHT22;276;48.392;9.950;2024-03-22T09:12:24;15.40;99.90
580;DHT22;276;48.392;9.950;2024-03-22T09:14:50;15.50;99.90
580;DHT22;276;48.392;9.950;2024-03-22T09:17:15;15.60;99.90
580;DHT22;276;48.392;9.950;2024-03-22T09:19:41;15.70;99.90
580;DHT22;276;48.392;9.950;2024-03-22T09:22:11;15.80;99.90
580;DHT22;276;48.392;9.950;2024-03-22T09:24:40;16.00;99.90
580;DHT22;276;48.392;9.950;2024-03-22T09:27:08;16.20;99.90
580;DHT22;276;48.392;9.950;2024-03-22T09:29:36;16.20;99.90
580;DHT22;276;48.392;9.950;2024-03-22T09:32:02;16.30;99.90
580;DHT22;276;48.392;9.950;2024-03-22T09:34:28;16.50;99.90
580;DHT22;276;48.392;9.950;2024-03-22T09:36:55;16.60;99.90
580;DHT22;276;48.392;9.950;2024-03-22T09:39:22;16.80;99.90
580;DHT22;276;48.392;9.950;2024-03-22T09:41:53;16.80;99.90
580;DHT22;276;48.392;9.950;2024-03-22T09:44:23;16.90;99.90
580;DHT22;276;48.392;9.950;2024-03-22T09:46:52;17.00;99.90
580;DHT22;276;48.392;9.950;2024-03-22T09:49:23;17.10;99.90
580;DHT22;276;48.392;9.950;2024-03-22T09:51:51;17.10;99.80
580;DHT22;276;48.392;9.950;2024-03-22T09:54:17;17.10;99.90
580;DHT22;276;48.392;9.950;2024-03-22T09:56:43;17.10;99.80
580;DHT22;276;48.392;9.950;2024-03-22T09:59:11;17.20;99.60
580;DHT22;276;48.392;9.950;2024-03-22T10:01:38;17.30;99.70
580;DHT22;276;48.392;9.950;2024-03-22T10:04:08;17.50;99.40
580;DHT22;276;48.392;9.950;2024-03-22T10:06:35;17.60;99.20
580;DHT22;276;48.392;9.950;2024-03-22T10:09:04;17.70;98.90
580;DHT22;276;48.392;9.950;2024-03-22T10:11:34;17.70;98.70
580;DHT22;276;48.392;9.950;2024-03-22T10:14:02;17.70;98.50
580;DHT22;276;48.392;9.950;2024-03-22T10:16:33;17.80;98.70
580;DHT22;276;48.392;9.950;2024-03-22T10:19:01;17.90;98.10
580;DHT22;276;48.392;9.950;2024-03-22T10:21:27;17.90;97.90
580;DHT22;276;48.392;9.950;2024-03-22T10:23:54;17.90;97.90
580;DHT22;276;48.392;9.950;2024-03-22T10:26:22;18.00;98.10
580;DHT22;276;48.392;9.950;2024-03-22T10:28:50;18.10;97.80
580;DHT22;276;48.392;9.950;2024-03-22T10:31:15;18.20;97.70
580;DHT22;276;48.392;9.950;2024-03-22T10:33:41;18.30;97.70
580;DHT22;276;48.392;9.950;2024-03-22T10:36:12;18.40;97.20
580;DHT22;276;48.392;9.950;2024-03-22T10:38:40;18.60;97.10
580;DHT22;276;48.392;9.950;2024-03-22T10:41:06;18.70;96.50
580;DHT22;276;48.392;9.950;2024-03-22T10:43:34;18.80;96.50
580;DHT22;276;48.392;9.950;2024-03-22T10:46:01;18.90;96.50
580;DHT22;276;48.392;9.950;2024-03-22T10:48:30;19.00;95.90
580;DHT22;276;48.392;9.950;2024-03-22T10:51:00;19.20;95.80
580;DHT22;276;48.392;9.950;2024-03-22T10:53:26;19.10;95.30
580;DHT22;276;48.392;9.950;2024-03-22T10:55:55;19.30;95.70
580;DHT22;276;48.392;9.950;2024-03-22T10:58:27;19.30;95.40
580;DHT22;276;48.392;9.950;2024-03-22T11:00:56;19.30;94.70
580;DHT22;276;48.392;9.950;2024-03-22T11:03:26;19.20;94.60
580;DHT22;276;48.392;9.950;2024-03-22T11:05:59;19.30;94.70
580;DHT22;276;48.392;9.950;2024-03-22T11:10:56;19.40;94.40
580;DHT22;276;48.392;9.950;2024-03-22T11:13:22;19.40;94.20
580;DHT22;276;48.392;9.950;2024-03-22T11:15:53;19.60;94.40
580;DHT22;276;48.392;9.950;2024-03-22T11:18:21;19.80;94.30
580;DHT22;276;48.392;9.950;2024-03-22T11:20:47;20.00;94.10
580;DHT22;276;48.392;9.950;2024-03-22T11:23:13;20.10;93.30
580;DHT22;276;48.392;9.950;2024-03-22T11:25:39;20.10;92.60
580;DHT22;276;48.392;9.950;2024-03-22T11:28:07;20.10;92.60
580;DHT22;276;48.392;9.950;2024-03-22T11:30:33;20.00;92.30
580;DHT22;276;48.392;9.950;2024-03-22T11:33:04;20.10;93.00
580;DHT22;276;48.392;9.950;2024-03-22T11:35:36;20.20;92.20
580;DHT22;276;48.392;9.950;2024-03-22T11:38:06;20.30;92.20
580;DHT22;276;48.392;9.950;2024-03-22T11:40:33;20.30;91.70
580;DHT22;276;48.392;9.950;2024-03-22T11:42:59;20.40;92.00
580;DHT22;276;48.392;9.950;2024-03-22T11:45:28;20.40;91.60
580;DHT22;276;48.392;9.950;2024-03-22T11:47:57;20.40;91.00
580;DHT22;276;48.392;9.950;2024-03-22T11:50:22;20.30;91.10
580;DHT22;276;48.392;9.950;2024-03-22T11:52:48;20.30;91.30
580;DHT22;276;48.392;9.950;2024-03-22T11:55:14;20.20;91.10
580;DHT22;276;48.392;9.950;2024-03-22T11:57:40;20.20;91.10
580;DHT22;276;48.392;9.950;2024-03-22T12:00:14;20.30;90.80
580;DHT22;276;48.392;9.950;2024-03-22T12:02:40;20.30;90.50
580;DHT22;276;48.392;9.950;2024-03-22T12:05:07;20.30;90.50
580;DHT22;276;48.392;9.950;2024-03-22T12:07:33;20.40;90.60
580;DHT22;276;48.392;9.950;2024-03-22T12:09:59;20.50;90.80
580;DHT22;276;48.392;9.950;2024-03-22T12:12:30;20.50;90.30
580;DHT22;276;48.392;9.950;2024-03-22T12:14:55;20.50;90.20
580;DHT22;276;48.392;9.950;2024-03-22T12:17:21;20.40;89.90
580;DHT22;276;48.392;9.950;2024-03-22T12:19:47;20.40;89.40
580;DHT22;276;48.392;9.950;2024-03-22T12:22:13;20.30;89.70
580;DHT22;276;48.392;9.950;2024-03-22T12:24:38;20.30;90.10
580;DHT22;276;48.392;9.950;2024-03-22T12:27:04;20.40;90.20
580;DHT22;276;48.392;9.950;2024-03-22T12:29:36;20.40;89.00
580;DHT22;276;48.392;9.950;2024-03-22T12:32:02;20.40;89.30
580;DHT22;276;48.392;9.950;2024-03-22T12:34:31;20.40;89.10
580;DHT22;276;48.392;9.950;2024-03-22T12:37:00;20.50;88.70
580;DHT22;276;48.392;9.950;2024-03-22T12:39:25;20.50;89.20
580;DHT22;276;48.392;9.950;2024-03-22T12:41:53;20.60;89.30
580;DHT22;276;48.392;9.950;2024-03-22T12:44:20;20.60;88.50
580;DHT22;276;48.392;9.950;2024-03-22T12:46:46;20.50;88.30
580;DHT22;276;48.392;9.950;2024-03-22T12:49:12;20.30;88.80
580;DHT22;276;48.392;9.950;2024-03-22T12:51:38;20.30;89.50
580;DHT22;276;48.392;9.950;2024-03-22T12:54:09;20.30;89.70
580;DHT22;276;48.392;9.950;2024-03-22T12:56:39;20.30;89.20
580;DHT22;276;48.392;9.950;2024-03-22T12:59:10;20.30;88.40
580;DHT22;276;48.392;9.950;2024-03-22T13:01:38;20.10;87.20
580;DHT22;276;48.392;9.950;2024-03-22T13:04:04;20.10;86.40
580;DHT22;276;48.392;9.950;2024-03-22T13:06:29;20.10;86.40
580;DHT22;276;48.392;9.950;2024-03-22T13:08:57;20.10;86.40
580;DHT22;276;48.392;9.950;2024-03-22T13:11:23;20.10;86.80
580;DHT22;276;48.392;9.950;2024-03-22T13:13:52;20.00;86.40
580;DHT22;276;48.392;9.950;2024-03-22T13:16:22;19.90;86.90
580;DHT22;276;48.392;9.950;2024-03-22T13:18:48;19.90;87.70
580;DHT22;276;48.392;9.950;2024-03-22T13:21:17;19.90;86.90
580;DHT22;276;48.392;9.950;2024-03-22T13:23:45;20.00;87.80
580;DHT22;276;48.392;9.950;2024-03-22T13:26:16;19.90;87.10
580;DHT22;276;48.392;9.950;2024-03-22T13:28:41;19.80;87.00
580;DHT22;276;48.392;9.950;2024-03-22T13:31:09;19.70;88.00
580;DHT22;276;48.392;9.950;2024-03-22T13:33:42;19.70;87.70
580;DHT22;276;48.392;9.950;2024-03-22T13:36:07;19.70;88.10
580;DHT22;276;48.392;9.950;2024-03-22T13:38:33;19.70;88.20
580;DHT22;276;48.392;9.950;2024-03-22T13:41:01;19.70;88.20
580;DHT22;276;48.392;9.950;2024-03-22T13:43:31;19.70;87.10
580;DHT22;276;48.392;9.950;2024-03-22T13:45:57;19.70;87.10
580;DHT22;276;48.392;9.950;2024-03-22T13:48:24;19.70;87.50
580;DHT22;276;48.392;9.950;2024-03-22T13:50:54;19.70;87.10
580;DHT22;276;48.392;9.950;2024-03-22T13:53:20;19.70;86.70
580;DHT22;276;48.392;9.950;2024-03-22T13:55:48;19.60;87.00
580;DHT22;276;48.392;9.950;2024-03-22T13:58:14;19.50;88.30
580;DHT22;276;48.392;9.950;2024-03-22T14:00:42;19.50;87.70
580;DHT22;276;48.392;9.950;2024-03-22T14:03:08;19.50;87.90
580;DHT22;276;48.392;9.950;2024-03-22T14:05:33;19.60;87.20
580;DHT22;276;48.392;9.950;2024-03-22T14:07:59;19.60;87.00
580;DHT22;276;48.392;9.950;2024-03-22T14:10:29;19.60;86.70
580;DHT22;276;48.392;9.950;2024-03-22T14:12:59;19.60;86.20
580;DHT22;276;48.392;9.950;2024-03-22T14:15:27;19.60;86.80
580;DHT22;276;48.392;9.950;2024-03-22T14:17:57;19.60;85.60
580;DHT22;276;48.392;9.950;2024-03-22T14:20:23;19.50;86.30
580;DHT22;276;48.392;9.950;2024-03-22T14:22:50;19.40;86.90
580;DHT22;276;48.392;9.950;2024-03-22T14:25:18;19.40;87.20
580;DHT22;276;48.392;9.950;2024-03-22T14:27:47;19.40;87.40
580;DHT22;276;48.392;9.950;2024-03-22T14:30:14;19.40;88.20
580;DHT22;276;48.392;9.950;2024-03-22T14:32:41;19.40;87.50
580;DHT22;276;48.392;9.950;2024-03-22T14:35:10;19.30;88.00
580;DHT22;276;48.392;9.950;2024-03-22T14:37:35;19.30;87.10
580;DHT22;276;48.392;9.950;2024-03-22T14:40:01;19.40;87.80
580;DHT22;276;48.392;9.950;2024-03-22T14:42:30;19.30;86.30
580;DHT22;276;48.392;9.950;2024-03-22T14:44:56;19.30;86.90
580;DHT22;276;48.392;9.950;2024-03-22T14:47:22;19.30;86.00
580;DHT22;276;48.392;9.950;2024-03-22T14:49:50;19.10;86.40
580;DHT22;276;48.392;9.950;2024-03-22T14:52:17;19.10;86.90
580;DHT22;276;48.392;9.950;2024-03-22T14:54:42;19.00;86.50
580;DHT22;276;48.392;9.950;2024-03-22T14:57:11;18.90;86.40
580;DHT22;276;48.392;9.950;2024-03-22T14:59:36;18.80;86.30
580;DHT22;276;48.392;9.950;2024-03-22T15:02:05;18.80;86.10
580;DHT22;276;48.392;9.950;2024-03-22T15:04:33;18.70;86.30
580;DHT22;276;48.392;9.950;2024-03-22T15:07:03;18.70;86.80
580;DHT22;276;48.392;9.950;2024-03-22T15:09:29;18.80;88.00
580;DHT22;276;48.392;9.950;2024-03-22T15:12:01;18.80;87.20
580;DHT22;276;48.392;9.950;2024-03-22T15:14:27;18.80;87.50
580;DHT22;276;48.392;9.950;2024-03-22T15:16:56;18.80;87.50
580;DHT22;276;48.392;9.950;2024-03-22T15:19:23;18.80;87.80
580;DHT22;276;48.392;9.950;2024-03-22T15:21:51;18.70;87.50
580;DHT22;276;48.392;9.950;2024-03-22T15:24:17;18.70;87.80
580;DHT22;276;48.392;9.950;2024-03-22T15:26:45;18.70;88.60
580;DHT22;276;48.392;9.950;2024-03-22T15:29:11;18.70;88.30
580;DHT22;276;48.392;9.950;2024-03-22T15:31:37;18.70;88.40
580;DHT22;276;48.392;9.950;2024-03-22T15:34:02;18.60;89.00
580;DHT22;276;48.392;9.950;2024-03-22T15:36:30;18.50;90.10
580;DHT22;276;48.392;9.950;2024-03-22T15:38:56;18.60;90.00
580;DHT22;276;48.392;9.950;2024-03-22T15:41:22;18.70;90.30
580;DHT22;276;48.392;9.950;2024-03-22T15:43:50;18.70;89.90
580;DHT22;276;48.392;9.950;2024-03-22T15:46:18;18.70;90.00
580;DHT22;276;48.392;9.950;2024-03-22T15:48:46;18.70;90.00
580;DHT22;276;48.392;9.950;2024-03-22T15:51:14;18.70;90.10
580;DHT22;276;48.392;9.950;2024-03-22T15:53:40;18.70;90.20
580;DHT22;276;48.392;9.950;2024-03-22T15:56:05;18.80;90.30
580;DHT22;276;48.392;9.950;2024-03-22T15:58:33;18.70;90.10
580;DHT22;276;48.392;9.950;2024-03-22T16:00:58;18.70;90.00
580;DHT22;276;48.392;9.950;2024-03-22T16:03:24;18.70;90.30
580;DHT22;276;48.392;9.950;2024-03-22T16:05:53;18.60;90.20
580;DHT22;276;48.392;9.950;2024-03-22T16:08:19;18.60;90.50
580;DHT22;276;48.392;9.950;2024-03-22T16:10:47;18.70;90.60
580;DHT22;276;48.392;9.950;2024-03-22T16:13:13;18.70;90.60
580;DHT22;276;48.392;9.950;2024-03-22T16:15:39;18.70;90.80
580;DHT22;276;48.392;9.950;2024-03-22T16:18:07;18.70;90.80
580;DHT22;276;48.392;9.950;2024-03-22T16:20:38;18.70;91.00
580;DHT22;276;48.392;9.950;2024-03-22T16:23:08;18.70;90.40
580;DHT22;276;48.392;9.950;2024-03-22T16:25:37;18.70;90.60
580;DHT22;276;48.392;9.950;2024-03-22T16:28:06;18.70;90.80
580;DHT22;276;48.392;9.950;2024-03-22T16:30:31;18.70;90.80
580;DHT22;276;48.392;9.950;2024-03-22T16:32:58;18.60;90.40
580;DHT22;276;48.392;9.950;2024-03-22T16:35:26;18.50;90.40
580;DHT22;276;48.392;9.950;2024-03-22T16:37:54;18.50;90.60
580;DHT22;276;48.392;9.950;2024-03-22T16:40:25;18.60;90.80